DAOB/TID METAR and TAF weather

Enter ICAO airport designator
Station Type Date Time Source
DAOB METAR 2019/06/17 06:00 UTC NOAA

DAOB 170600Z 28004KT 9000 SCT023 SCT090 16/15 Q1019


Station Type Date Time Source
DAOB Decoded METAR 2019/06/17 06:00 UTC NOAA

Tiaret, Algeria (DAOB) 35-15N 001-26E 1127M
Jun 17, 2019 - 02:00 AM EDT / 2019.06.17 0600 UTC
Wind: from the W (280 degrees) at 5 MPH (4 KT):0
Visibility: 5 mile(s):0
Sky conditions: partly cloudy
Temperature: 60 F (16 C)
Dew Point: 59 F (15 C)
Relative Humidity: 93%
Pressure (altimeter): 30.09 in. Hg (1019 hPa)
ob: DAOB 170600Z 28004KT 9000 SCT023 SCT090 16/15 Q1019
cycle: 6

Station Type Date Time Source
DAOB TAF 2019/06/17 06:33 UTC NOAA

TAF DAOB 170500Z 1706/1806 VRB02KT CAVOK PROB30
TEMPO 1706/1708 3000 BR BKN015
BECMG 1707/1711 32012KT
BECMG 1721/1724 VRB02KT

Example: see airport list